createdAt,value
2023-03-21T00:01:50.394Z,8.90
2023-03-21T00:04:17.598Z,8.80
2023-03-21T00:06:44.288Z,8.80
2023-03-21T00:09:12.131Z,8.80
2023-03-21T00:11:38.722Z,8.80
2023-03-21T00:14:08.711Z,8.90
2023-03-21T00:16:37.149Z,8.90
2023-03-21T00:19:06.267Z,8.90
2023-03-21T00:21:46.619Z,8.90
2023-03-21T00:24:18.798Z,8.90
2023-03-21T00:26:46.036Z,8.80
2023-03-21T00:29:12.816Z,8.90
2023-03-21T00:31:39.405Z,8.90
2023-03-21T00:34:06.059Z,8.90
2023-03-21T00:36:32.669Z,8.80
2023-03-21T00:39:00.711Z,8.80
2023-03-21T00:41:41.367Z,8.90
2023-03-21T00:44:10.191Z,8.80
2023-03-21T00:46:45.580Z,8.80
2023-03-21T00:49:16.012Z,8.90
2023-03-21T00:51:43.533Z,8.80
2023-03-21T00:54:12.616Z,8.80
2023-03-21T00:56:39.213Z,8.90
2023-03-21T00:59:06.290Z,8.90
2023-03-21T01:01:32.950Z,8.90
2023-03-21T01:04:05.621Z,8.90
2023-03-21T01:06:39.456Z,8.80
2023-03-21T01:09:07.972Z,8.80
2023-03-21T01:11:35.273Z,8.80
2023-03-21T01:14:18.705Z,8.90
2023-03-21T01:16:48.682Z,8.90
2023-03-21T01:19:25.557Z,8.90
2023-03-21T01:21:55.755Z,8.90
2023-03-21T01:24:22.452Z,8.80
2023-03-21T01:26:49.082Z,8.80
2023-03-21T01:29:15.662Z,8.80
2023-03-21T01:31:42.341Z,8.80
2023-03-21T01:34:08.975Z,8.70
2023-03-21T01:36:35.599Z,8.80
2023-03-21T01:39:02.302Z,8.90
2023-03-21T01:41:47.504Z,8.70
2023-03-21T01:44:19.421Z,8.80
2023-03-21T01:46:57.398Z,8.80
2023-03-21T01:49:47.900Z,8.90
2023-03-21T01:52:29.594Z,8.90
2023-03-21T01:55:02.240Z,8.80
2023-03-21T01:57:42.439Z,8.80
2023-03-21T02:00:15.413Z,8.90
2023-03-21T02:02:52.528Z,8.90
2023-03-21T02:05:27.232Z,8.90
2023-03-21T02:07:53.825Z,8.90
2023-03-21T02:10:21.320Z,8.90
2023-03-21T02:12:48.195Z,8.90
2023-03-21T02:15:15.998Z,9.00
2023-03-21T02:17:51.859Z,9.00
2023-03-21T02:20:25.159Z,9.00
2023-03-21T02:23:17.707Z,9.00
2023-03-21T02:26:02.595Z,9.00
2023-03-21T02:28:47.135Z,9.00
2023-03-21T02:31:36.229Z,9.10
2023-03-21T02:34:24.634Z,9.10
2023-03-21T02:37:38.367Z,9.00
2023-03-21T02:40:32.273Z,9.00
2023-03-21T02:43:23.650Z,8.90
2023-03-21T02:45:57.915Z,9.00
2023-03-21T02:48:48.243Z,9.00
2023-03-21T02:51:20.407Z,9.00
2023-03-21T02:54:10.223Z,9.00
2023-03-21T02:56:41.286Z,9.10
2023-03-21T02:59:08.775Z,9.10
2023-03-21T03:01:35.541Z,9.10
2023-03-21T03:04:02.317Z,9.10
2023-03-21T03:06:38.956Z,9.10
2023-03-21T03:09:47.973Z,9.00
2023-03-21T03:12:25.305Z,9.00
2023-03-21T03:15:17.693Z,9.10
2023-03-21T03:17:52.099Z,9.10
2023-03-21T03:20:34.874Z,9.10
2023-03-21T03:23:25.755Z,9.10
2023-03-21T03:26:18.360Z,9.10
2023-03-21T03:28:51.495Z,9.10
2023-03-21T03:31:37.680Z,9.10
2023-03-21T03:34:11.806Z,9.10
2023-03-21T03:36:43.066Z,9.10
2023-03-21T03:39:12.082Z,9.10
2023-03-21T03:42:12.556Z,9.10
2023-03-21T03:44:34.906Z,9.20
2023-03-21T03:47:06.376Z,9.20
2023-03-21T03:49:43.196Z,9.20
2023-03-21T03:52:12.397Z,9.20
2023-03-21T03:54:44.052Z,9.20
2023-03-21T03:57:13.713Z,9.30
2023-03-21T03:59:45.701Z,9.30
2023-03-21T04:02:12.842Z,9.30
2023-03-21T04:04:40.031Z,9.20
2023-03-21T04:07:07.646Z,9.20
2023-03-21T04:09:44.240Z,9.20
2023-03-21T04:12:12.857Z,9.20
2023-03-21T04:14:45.716Z,9.20
2023-03-21T04:17:12.597Z,9.30
2023-03-21T04:19:39.166Z,9.30
2023-03-21T04:22:05.839Z,9.20
2023-03-21T04:24:33.733Z,9.30
2023-03-21T04:27:00.898Z,9.30
2023-03-21T04:29:29.547Z,9.30
2023-03-21T04:31:56.459Z,9.30
2023-03-21T04:34:24.091Z,9.30
2023-03-21T04:36:53.907Z,9.30
2023-03-21T04:39:20.961Z,9.30
2023-03-21T04:41:48.190Z,9.30
2023-03-21T04:44:16.460Z,9.30
2023-03-21T04:46:43.575Z,9.30
2023-03-21T04:49:10.743Z,9.30
2023-03-21T04:51:37.826Z,9.30
2023-03-21T04:54:05.770Z,9.30
2023-03-21T04:56:33.718Z,9.30
2023-03-21T04:59:06.969Z,9.30
2023-03-21T05:01:33.970Z,9.30
2023-03-21T05:04:02.002Z,9.30
2023-03-21T05:06:29.184Z,9.30
2023-03-21T05:09:01.390Z,9.30
2023-03-21T05:11:30.696Z,9.30
2023-03-21T05:13:58.313Z,9.30
2023-03-21T05:16:27.062Z,9.30
2023-03-21T05:18:55.590Z,9.30
2023-03-21T05:21:22.989Z,9.30
2023-03-21T05:23:54.504Z,9.30
2023-03-21T05:26:22.988Z,9.40
2023-03-21T05:28:50.513Z,9.40
2023-03-21T05:31:18.459Z,9.40
2023-03-21T05:33:45.739Z,9.40
2023-03-21T05:36:12.600Z,9.40
2023-03-21T05:38:42.670Z,9.40
2023-03-21T05:41:10.824Z,9.30
2023-03-21T05:43:37.461Z,9.40
2023-03-21T05:46:04.339Z,9.40
2023-03-21T05:48:30.906Z,9.40
2023-03-21T05:50:57.465Z,9.40
2023-03-21T05:53:24.069Z,9.40
2023-03-21T05:55:50.602Z,9.50
2023-03-21T05:58:19.632Z,9.50
2023-03-21T06:00:46.500Z,9.50
2023-03-21T06:03:13.121Z,9.50
2023-03-21T06:05:39.974Z,9.50
2023-03-21T06:08:06.817Z,9.60
2023-03-21T06:10:33.404Z,9.60
2023-03-21T06:13:00.048Z,9.60
2023-03-21T06:15:26.737Z,9.60
2023-03-21T06:17:53.496Z,9.60
2023-03-21T06:20:20.125Z,9.60
2023-03-21T06:22:46.671Z,9.60
2023-03-21T06:25:13.901Z,9.60
2023-03-21T06:27:43.828Z,9.60
2023-03-21T06:30:11.010Z,9.60
2023-03-21T06:32:37.691Z,9.60
2023-03-21T06:35:05.216Z,9.60
2023-03-21T06:37:31.866Z,9.60
2023-03-21T06:39:58.393Z,9.60
2023-03-21T06:42:25.202Z,9.60
2023-03-21T06:44:51.791Z,9.60
2023-03-21T06:47:18.382Z,9.70
2023-03-21T06:49:45.663Z,9.60
2023-03-21T06:52:12.243Z,9.60
2023-03-21T06:54:38.950Z,9.60
2023-03-21T06:57:05.586Z,9.70
2023-03-21T06:59:32.152Z,9.60
2023-03-21T07:01:59.046Z,9.70
2023-03-21T07:04:26.915Z,9.70
2023-03-21T07:06:53.582Z,9.60
2023-03-21T07:09:24.348Z,9.70
2023-03-21T07:11:56.117Z,9.70
2023-03-21T07:14:23.792Z,9.70
2023-03-21T07:16:50.464Z,9.70
2023-03-21T07:19:19.314Z,9.80
2023-03-21T07:21:46.234Z,9.70
2023-03-21T07:24:12.976Z,9.70
2023-03-21T07:26:40.372Z,9.80
2023-03-21T07:29:06.968Z,9.70
2023-03-21T07:31:33.552Z,9.70
2023-03-21T07:34:00.467Z,9.70
2023-03-21T07:36:29.793Z,9.80
2023-03-21T07:38:56.428Z,9.80
2023-03-21T07:41:23.030Z,9.80
2023-03-21T07:43:49.615Z,9.80
2023-03-21T07:46:17.162Z,9.80
2023-03-21T07:48:43.760Z,9.80
2023-03-21T07:51:12.326Z,9.80
2023-03-21T07:53:41.704Z,9.80
2023-03-21T07:56:08.829Z,9.80
2023-03-21T07:58:36.449Z,9.80
2023-03-21T08:01:04.319Z,9.80
2023-03-21T08:03:33.124Z,9.80
2023-03-21T08:06:03.388Z,9.80
2023-03-21T08:08:30.251Z,9.80
2023-03-21T08:10:56.907Z,9.80
2023-03-21T08:13:23.552Z,9.80
2023-03-21T08:15:50.174Z,9.90
2023-03-21T08:18:18.630Z,9.90
2023-03-21T08:20:45.513Z,9.90
2023-03-21T08:23:15.344Z,9.90
2023-03-21T08:25:41.870Z,9.90
2023-03-21T08:28:08.441Z,9.90
2023-03-21T08:30:35.354Z,9.90
2023-03-21T08:33:04.012Z,9.90
2023-03-21T08:35:31.592Z,9.90
2023-03-21T08:37:58.242Z,9.90
2023-03-21T08:40:24.817Z,9.90
2023-03-21T08:42:51.401Z,10.10
2023-03-21T08:45:20.102Z,10.00
2023-03-21T08:47:47.236Z,10.00
2023-03-21T08:50:17.403Z,10.10
2023-03-21T08:52:44.424Z,10.10
2023-03-21T08:55:12.457Z,10.10
2023-03-21T08:57:39.147Z,10.10
2023-03-21T09:00:20.560Z,10.10
2023-03-21T09:02:49.543Z,10.10
2023-03-21T09:05:16.828Z,10.10
2023-03-21T09:07:44.429Z,10.10
2023-03-21T09:10:21.029Z,10.00
2023-03-21T09:12:53.686Z,10.10
2023-03-21T09:15:21.827Z,10.10
2023-03-21T09:17:53.677Z,10.20
2023-03-21T09:20:27.426Z,10.20
2023-03-21T09:22:54.145Z,10.10
2023-03-21T09:25:21.330Z,10.20
2023-03-21T09:27:48.093Z,10.30
2023-03-21T09:30:17.330Z,10.30
2023-03-21T09:32:49.873Z,10.20
2023-03-21T09:35:18.748Z,10.20
2023-03-21T09:37:47.265Z,10.20
2023-03-21T09:40:54.771Z,10.30
2023-03-21T09:43:50.139Z,10.20
2023-03-21T09:46:25.313Z,10.30
2023-03-21T09:49:07.681Z,10.30
2023-03-21T09:51:41.460Z,10.30
2023-03-21T09:54:20.837Z,10.30
2023-03-21T09:56:50.694Z,10.40
2023-03-21T09:59:40.049Z,10.40
2023-03-21T10:02:40.380Z,10.50
2023-03-21T10:05:29.246Z,10.50
2023-03-21T10:07:56.273Z,10.60
2023-03-21T10:10:29.660Z,10.60
2023-03-21T10:12:56.856Z,10.70
2023-03-21T10:15:27.816Z,10.60
2023-03-21T10:18:01.787Z,10.70
2023-03-21T10:20:35.321Z,10.70
2023-03-21T10:23:06.631Z,10.70
2023-03-21T10:25:38.621Z,10.80
2023-03-21T10:28:07.771Z,10.80
2023-03-21T10:30:50.951Z,10.80
2023-03-21T10:33:22.665Z,10.90
2023-03-21T10:36:09.236Z,10.90
2023-03-21T10:38:40.772Z,10.80
2023-03-21T10:41:07.487Z,10.80
2023-03-21T10:43:40.646Z,10.90
2023-03-21T10:46:15.633Z,11.00
2023-03-21T10:48:47.399Z,11.00
2023-03-21T10:51:20.772Z,10.90
2023-03-21T10:53:54.867Z,11.00
2023-03-21T10:56:29.031Z,10.90
2023-03-21T10:59:00.100Z,11.00
2023-03-21T11:01:37.516Z,11.00
2023-03-21T11:04:15.997Z,10.90
2023-03-21T11:06:48.257Z,10.80
2023-03-21T11:09:20.205Z,10.90
2023-03-21T11:12:01.591Z,10.90
2023-03-21T11:14:39.271Z,10.90
2023-03-21T11:17:20.665Z,10.90
2023-03-21T11:19:49.482Z,10.90
2023-03-21T11:22:18.434Z,10.90
2023-03-21T11:24:51.319Z,11.00
2023-03-21T11:27:21.395Z,11.00
2023-03-21T11:29:51.027Z,11.10
2023-03-21T11:32:33.764Z,11.10
2023-03-21T11:35:05.185Z,11.10
2023-03-21T11:37:37.474Z,11.10
2023-03-21T11:40:19.405Z,11.10
2023-03-21T11:42:49.670Z,11.20
2023-03-21T11:45:19.543Z,11.20
2023-03-21T11:47:47.727Z,11.20
2023-03-21T11:50:41.773Z,11.20
2023-03-21T11:53:48.323Z,11.20
2023-03-21T11:56:34.544Z,11.20
2023-03-21T11:59:10.502Z,11.30
2023-03-21T12:02:04.076Z,11.20
2023-03-21T12:05:00.918Z,11.20
2023-03-21T12:07:49.212Z,11.20
2023-03-21T12:10:32.375Z,11.10
2023-03-21T12:13:26.931Z,11.10
2023-03-21T12:16:22.373Z,11.20
2023-03-21T12:18:51.990Z,11.30
2023-03-21T12:21:34.690Z,11.40
2023-03-21T12:24:24.416Z,11.30
2023-03-21T12:27:13.201Z,11.40
2023-03-21T12:29:59.509Z,11.40
2023-03-21T12:32:44.094Z,11.40
2023-03-21T12:35:36.849Z,11.30
2023-03-21T12:38:15.940Z,11.30
2023-03-21T12:41:03.023Z,11.30
2023-03-21T12:43:48.251Z,11.20
2023-03-21T12:46:29.248Z,11.30
2023-03-21T12:49:02.648Z,11.20
2023-03-21T12:51:32.637Z,11.30
2023-03-21T12:54:08.661Z,11.30
2023-03-21T12:56:58.613Z,11.20
2023-03-21T12:59:47.338Z,11.30
2023-03-21T13:02:17.159Z,11.30
2023-03-21T13:05:18.278Z,11.20
2023-03-21T13:07:51.618Z,11.30
2023-03-21T13:10:21.051Z,11.30
2023-03-21T13:13:13.492Z,11.30
2023-03-21T13:15:55.315Z,11.30
2023-03-21T13:18:35.470Z,11.20
2023-03-21T13:21:12.987Z,11.20
2023-03-21T13:23:40.167Z,11.30
2023-03-21T13:26:11.198Z,11.30
2023-03-21T13:28:40.925Z,11.30
2023-03-21T13:31:16.830Z,11.40
2023-03-21T13:33:47.300Z,11.30
2023-03-21T13:36:25.625Z,11.30
2023-03-21T13:38:59.628Z,11.30
2023-03-21T13:41:35.592Z,11.30
2023-03-21T13:44:02.195Z,11.30
2023-03-21T13:46:28.849Z,11.20
2023-03-21T13:48:59.943Z,11.20
2023-03-21T13:51:29.618Z,11.30
2023-03-21T13:54:08.448Z,11.30
2023-03-21T13:56:47.416Z,11.20
2023-03-21T13:59:17.556Z,11.20
2023-03-21T14:02:12.964Z,11.20
2023-03-21T14:04:59.999Z,11.20
2023-03-21T14:07:36.500Z,11.20
2023-03-21T14:10:10.616Z,11.30
2023-03-21T14:12:42.056Z,11.20
2023-03-21T14:15:22.763Z,11.20
2023-03-21T14:18:10.806Z,11.30
2023-03-21T14:20:56.434Z,11.20
2023-03-21T14:23:24.180Z,11.30
2023-03-21T14:25:51.665Z,11.20
2023-03-21T14:28:28.534Z,11.30
2023-03-21T14:30:59.886Z,11.20
2023-03-21T14:33:41.533Z,11.10
2023-03-21T14:36:17.021Z,11.20
2023-03-21T14:38:43.901Z,11.10
2023-03-21T14:41:24.556Z,11.10
2023-03-21T14:44:09.135Z,11.10
2023-03-21T14:46:35.789Z,11.20
2023-03-21T14:49:26.652Z,11.20
2023-03-21T14:51:56.156Z,11.20
2023-03-21T14:54:24.639Z,11.20
2023-03-21T14:57:04.171Z,11.20
2023-03-21T14:59:36.717Z,11.20
2023-03-21T15:02:15.505Z,11.30
2023-03-21T15:04:44.492Z,11.20
2023-03-21T15:07:24.878Z,11.20
2023-03-21T15:09:58.000Z,11.20
2023-03-21T15:12:26.994Z,11.30
2023-03-21T15:14:54.356Z,11.20
2023-03-21T15:17:23.708Z,11.30
2023-03-21T15:19:52.235Z,11.30
2023-03-21T15:22:35.082Z,11.30
2023-03-21T15:25:08.043Z,11.30
2023-03-21T15:27:39.914Z,11.40
2023-03-21T15:30:07.365Z,11.40
2023-03-21T15:32:36.559Z,11.40
2023-03-21T15:35:13.228Z,11.40
2023-03-21T15:37:41.618Z,11.40
2023-03-21T15:40:23.621Z,11.40
2023-03-21T15:42:52.466Z,11.40
2023-03-21T15:45:23.759Z,11.40
2023-03-21T15:50:50.690Z,11.40
2023-03-21T15:53:24.886Z,11.40
2023-03-21T15:56:02.460Z,11.40
2023-03-21T15:58:40.721Z,11.30
2023-03-21T16:01:15.957Z,11.40
2023-03-21T16:03:46.117Z,11.30
2023-03-21T16:06:14.191Z,11.40
2023-03-21T16:08:45.899Z,11.20
2023-03-21T16:11:18.712Z,11.20
2023-03-21T16:13:45.868Z,11.30
2023-03-21T16:16:27.051Z,11.20
2023-03-21T16:18:55.447Z,11.20
2023-03-21T16:21:24.474Z,11.10
2023-03-21T16:23:51.112Z,11.10
2023-03-21T16:26:21.304Z,11.10
2023-03-21T16:28:49.129Z,11.10
2023-03-21T16:31:21.106Z,11.10
2023-03-21T16:33:48.869Z,11.10
2023-03-21T16:36:22.846Z,11.10
2023-03-21T16:38:50.236Z,11.10
2023-03-21T16:41:17.176Z,11.10
2023-03-21T16:43:45.610Z,11.10
2023-03-21T16:46:17.066Z,11.10
2023-03-21T16:48:46.167Z,11.20
2023-03-21T16:51:21.539Z,11.10
2023-03-21T16:53:49.204Z,11.20
2023-03-21T16:56:24.827Z,11.20
2023-03-21T16:58:53.937Z,11.10
2023-03-21T17:01:25.915Z,11.10
2023-03-21T17:03:53.206Z,11.20
2023-03-21T17:06:24.231Z,11.20
2023-03-21T17:08:51.573Z,11.20
2023-03-21T17:11:20.351Z,11.20
2023-03-21T17:13:51.925Z,11.20
2023-03-21T17:16:26.567Z,11.20
2023-03-21T17:18:53.715Z,11.20
2023-03-21T17:21:23.141Z,11.20
2023-03-21T17:23:51.641Z,11.10
2023-03-21T17:26:24.318Z,11.20
2023-03-21T17:28:53.582Z,11.10
2023-03-21T17:31:23.845Z,11.10
2023-03-21T17:33:50.926Z,11.10
2023-03-21T17:36:20.423Z,11.10
2023-03-21T17:38:47.500Z,11.10
2023-03-21T17:41:17.510Z,11.10
2023-03-21T17:43:44.215Z,11.10
2023-03-21T17:46:13.980Z,11.00
2023-03-21T17:48:41.150Z,11.00
2023-03-21T17:51:08.658Z,10.90
2023-03-21T17:53:35.666Z,10.90
2023-03-21T17:56:02.264Z,10.90
2023-03-21T17:58:29.104Z,10.90
2023-03-21T18:00:55.755Z,11.00
2023-03-21T18:03:22.386Z,11.00
2023-03-21T18:05:48.951Z,10.90
2023-03-21T18:08:15.872Z,10.90
2023-03-21T18:10:42.997Z,10.90
2023-03-21T18:13:10.099Z,10.90
2023-03-21T18:15:38.172Z,10.90
2023-03-21T18:18:05.634Z,10.90
2023-03-21T18:23:19.820Z,10.90
2023-03-21T18:25:47.024Z,10.80
2023-03-21T18:28:13.930Z,10.80
2023-03-21T18:31:09.641Z,10.90
2023-03-21T18:33:28.649Z,10.80
2023-03-21T18:35:59.664Z,10.80
2023-03-21T18:38:27.780Z,10.80
2023-03-21T18:40:55.256Z,10.80
2023-03-21T18:46:09.169Z,10.70
2023-03-21T18:48:36.426Z,10.70
2023-03-21T18:51:03.878Z,10.70
2023-03-21T18:53:30.803Z,10.70
2023-03-21T18:55:57.680Z,10.80
2023-03-21T18:58:24.908Z,10.80
2023-03-21T19:00:53.491Z,10.80
2023-03-21T19:03:34.743Z,10.80
2023-03-21T19:06:03.741Z,10.80
2023-03-21T19:08:30.948Z,10.80
2023-03-21T19:11:00.243Z,10.80
2023-03-21T19:13:28.315Z,10.80
2023-03-21T19:15:56.206Z,10.80
2023-03-21T19:18:41.521Z,10.80
2023-03-21T19:21:09.862Z,10.70
2023-03-21T19:24:07.926Z,10.80
2023-03-21T19:26:24.050Z,10.80
2023-03-21T19:28:50.746Z,10.80
2023-03-21T19:31:18.929Z,10.80
2023-03-21T19:33:46.097Z,10.80
2023-03-21T19:36:21.631Z,10.80
2023-03-21T19:38:48.605Z,10.80
2023-03-21T19:41:15.416Z,10.90
2023-03-21T19:43:52.863Z,10.80
2023-03-21T19:46:22.515Z,10.80
2023-03-21T19:48:50.056Z,10.80
2023-03-21T19:51:33.148Z,10.80
2023-03-21T19:54:03.229Z,10.80
2023-03-21T19:56:31.510Z,10.80
2023-03-21T19:58:58.574Z,10.80
2023-03-21T20:01:26.893Z,10.80
2023-03-21T20:03:53.931Z,10.80
2023-03-21T20:06:23.620Z,10.80
2023-03-21T20:09:37.982Z,10.80
2023-03-21T20:11:38.270Z,10.80
2023-03-21T20:14:06.208Z,10.80
2023-03-21T20:16:35.967Z,10.80
2023-03-21T20:19:08.936Z,10.80
2023-03-21T20:21:48.238Z,10.80
2023-03-21T20:24:18.858Z,10.80
2023-03-21T20:26:45.903Z,10.90
2023-03-21T20:30:07.065Z,10.80
2023-03-21T20:31:59.568Z,10.80
2023-03-21T20:34:26.286Z,10.80
2023-03-21T20:36:53.189Z,10.80
2023-03-21T20:39:19.896Z,10.80
2023-03-21T20:41:46.699Z,10.80
2023-03-21T20:44:44.828Z,10.80
2023-03-21T20:47:00.409Z,10.80
2023-03-21T20:49:28.437Z,10.80
2023-03-21T20:54:42.169Z,10.80
2023-03-21T20:57:09.085Z,10.80
2023-03-21T20:59:35.829Z,10.80
2023-03-21T21:02:03.619Z,10.80
2023-03-21T21:04:52.850Z,10.80
2023-03-21T21:07:20.826Z,10.70
2023-03-21T21:09:48.184Z,10.70
2023-03-21T21:12:16.521Z,10.70
2023-03-21T21:14:43.988Z,10.80
2023-03-21T21:17:28.414Z,10.80
2023-03-21T21:19:57.542Z,10.70
2023-03-21T21:22:24.151Z,10.80
2023-03-21T21:24:52.562Z,10.80
2023-03-21T21:27:19.905Z,10.90
2023-03-21T21:29:49.831Z,10.80
2023-03-21T21:32:16.931Z,10.80
2023-03-21T21:34:43.597Z,10.80
2023-03-21T21:37:10.576Z,10.80
2023-03-21T21:39:38.489Z,10.80
2023-03-21T21:42:07.480Z,10.80
2023-03-21T21:44:34.065Z,10.80
2023-03-21T21:47:04.034Z,10.80
2023-03-21T21:49:31.106Z,10.80
2023-03-21T21:51:59.766Z,10.80
2023-03-21T21:54:30.017Z,10.80
2023-03-21T21:56:57.991Z,10.80
2023-03-21T21:59:25.099Z,10.80
2023-03-21T22:01:51.774Z,10.80
2023-03-21T22:04:27.649Z,10.80
2023-03-21T22:06:57.277Z,10.80
2023-03-21T22:09:23.897Z,10.80
2023-03-21T22:11:50.462Z,10.80
2023-03-21T22:14:17.189Z,10.70
2023-03-21T22:16:44.068Z,10.80
2023-03-21T22:19:10.647Z,10.80
2023-03-21T22:21:37.944Z,10.80
2023-03-21T22:24:04.968Z,10.80
2023-03-21T22:26:31.746Z,10.80
2023-03-21T22:28:59.772Z,10.80
2023-03-21T22:31:26.468Z,10.80
2023-03-21T22:33:53.023Z,10.80
2023-03-21T22:36:20.089Z,10.80
2023-03-21T22:38:47.748Z,10.70
2023-03-21T22:41:14.409Z,10.80
2023-03-21T22:43:40.994Z,10.70
2023-03-21T22:46:07.818Z,10.70
2023-03-21T22:48:34.748Z,10.70
2023-03-21T22:51:01.376Z,10.70
2023-03-21T22:53:28.238Z,10.60
2023-03-21T22:55:55.551Z,10.60
2023-03-21T22:58:22.159Z,10.60
2023-03-21T23:00:48.813Z,10.60
2023-03-21T23:03:16.911Z,10.50
2023-03-21T23:05:44.812Z,10.50
2023-03-21T23:08:12.432Z,10.40
2023-03-21T23:10:40.449Z,10.50
2023-03-21T23:13:07.206Z,10.40
2023-03-21T23:15:34.037Z,10.40
2023-03-21T23:18:00.679Z,10.40
2023-03-21T23:20:27.479Z,10.40
2023-03-21T23:22:54.485Z,10.30
2023-03-21T23:25:21.198Z,10.30
2023-03-21T23:27:48.261Z,10.30
2023-03-21T23:30:15.257Z,10.20
2023-03-21T23:32:42.527Z,10.20
2023-03-21T23:35:09.804Z,10.20
2023-03-21T23:37:36.794Z,10.20
2023-03-21T23:40:06.086Z,10.20
2023-03-21T23:42:34.033Z,10.30
2023-03-21T23:45:00.765Z,10.20
2023-03-21T23:47:27.557Z,10.20
2023-03-21T23:49:54.430Z,10.20
2023-03-21T23:52:21.375Z,10.20
2023-03-21T23:54:47.964Z,10.20
2023-03-21T23:57:14.645Z,10.10
2023-03-21T23:59:41.224Z,10.10
